sensor_id;sensor_type;location;lat;lon;timestamp;P1;durP1;ratioP1;P2;durP2;ratioP2
16514;SDS011;8370;52.556;7.970;2023-04-25T00:02:11;8.33;;;3.60;;
16514;SDS011;8370;52.556;7.970;2023-04-25T00:04:37;9.87;;;3.27;;
16514;SDS011;8370;52.556;7.970;2023-04-25T00:07:02;7.63;;;3.53;;
16514;SDS011;8370;52.556;7.970;2023-04-25T00:09:28;13.70;;;3.47;;
16514;SDS011;8370;52.556;7.970;2023-04-25T00:11:54;13.17;;;3.80;;
16514;SDS011;8370;52.556;7.970;2023-04-25T00:14:20;10.53;;;4.03;;
16514;SDS011;8370;52.556;7.970;2023-04-25T00:16:45;13.07;;;3.37;;
16514;SDS011;8370;52.556;7.970;2023-04-25T00:19:11;14.40;;;3.57;;
16514;SDS011;8370;52.556;7.970;2023-04-25T00:21:37;11.77;;;3.57;;
16514;SDS011;8370;52.556;7.970;2023-04-25T00:24:05;13.93;;;3.40;;
16514;SDS011;8370;52.556;7.970;2023-04-25T00:26:31;18.60;;;3.40;;
16514;SDS011;8370;52.556;7.970;2023-04-25T00:28:59;14.20;;;4.57;;
16514;SDS011;8370;52.556;7.970;2023-04-25T00:31:24;17.43;;;4.13;;
16514;SDS011;8370;52.556;7.970;2023-04-25T00:33:50;16.57;;;3.97;;
16514;SDS011;8370;52.556;7.970;2023-04-25T00:36:15;21.07;;;4.57;;
16514;SDS011;8370;52.556;7.970;2023-04-25T00:38:42;16.80;;;4.70;;
16514;SDS011;8370;52.556;7.970;2023-04-25T00:41:07;15.87;;;3.93;;
16514;SDS011;8370;52.556;7.970;2023-04-25T00:43:33;17.83;;;4.50;;
16514;SDS011;8370;52.556;7.970;2023-04-25T00:46:00;14.93;;;3.60;;
16514;SDS011;8370;52.556;7.970;2023-04-25T00:48:26;20.90;;;4.10;;
16514;SDS011;8370;52.556;7.970;2023-04-25T00:50:52;13.50;;;3.60;;
16514;SDS011;8370;52.556;7.970;2023-04-25T00:53:19;24.57;;;4.40;;
16514;SDS011;8370;52.556;7.970;2023-04-25T00:55:49;18.17;;;4.23;;
16514;SDS011;8370;52.556;7.970;2023-04-25T00:58:18;16.37;;;4.00;;
16514;SDS011;8370;52.556;7.970;2023-04-25T01:00:47;20.03;;;3.93;;
16514;SDS011;8370;52.556;7.970;2023-04-25T01:03:15;17.67;;;3.33;;
16514;SDS011;8370;52.556;7.970;2023-04-25T01:05:42;15.23;;;3.60;;
16514;SDS011;8370;52.556;7.970;2023-04-25T01:08:08;21.00;;;4.57;;
16514;SDS011;8370;52.556;7.970;2023-04-25T01:10:34;26.97;;;4.17;;
16514;SDS011;8370;52.556;7.970;2023-04-25T01:13:00;17.03;;;3.47;;
16514;SDS011;8370;52.556;7.970;2023-04-25T01:15:26;14.70;;;3.97;;
16514;SDS011;8370;52.556;7.970;2023-04-25T01:17:51;16.97;;;3.77;;
16514;SDS011;8370;52.556;7.970;2023-04-25T01:20:18;15.10;;;4.03;;
16514;SDS011;8370;52.556;7.970;2023-04-25T01:22:47;17.30;;;4.03;;
16514;SDS011;8370;52.556;7.970;2023-04-25T01:25:14;13.47;;;3.30;;
16514;SDS011;8370;52.556;7.970;2023-04-25T01:27:40;18.13;;;3.73;;
16514;SDS011;8370;52.556;7.970;2023-04-25T01:30:05;13.70;;;3.67;;
16514;SDS011;8370;52.556;7.970;2023-04-25T01:32:32;14.70;;;3.40;;
16514;SDS011;8370;52.556;7.970;2023-04-25T01:35:03;21.70;;;3.93;;
16514;SDS011;8370;52.556;7.970;2023-04-25T01:37:34;15.97;;;4.03;;
16514;SDS011;8370;52.556;7.970;2023-04-25T01:40:03;17.13;;;3.63;;
16514;SDS011;8370;52.556;7.970;2023-04-25T01:42:30;10.67;;;4.27;;
16514;SDS011;8370;52.556;7.970;2023-04-25T01:45:00;20.73;;;3.27;;
16514;SDS011;8370;52.556;7.970;2023-04-25T01:47:26;15.40;;;4.03;;
16514;SDS011;8370;52.556;7.970;2023-04-25T01:49:52;15.57;;;3.63;;
16514;SDS011;8370;52.556;7.970;2023-04-25T01:52:17;22.13;;;3.47;;
16514;SDS011;8370;52.556;7.970;2023-04-25T01:54:43;13.70;;;3.37;;
16514;SDS011;8370;52.556;7.970;2023-04-25T01:57:12;14.47;;;3.60;;
16514;SDS011;8370;52.556;7.970;2023-04-25T01:59:38;16.13;;;3.67;;
16514;SDS011;8370;52.556;7.970;2023-04-25T02:02:04;11.80;;;3.10;;
16514;SDS011;8370;52.556;7.970;2023-04-25T02:04:30;18.53;;;3.10;;
16514;SDS011;8370;52.556;7.970;2023-04-25T02:06:55;16.03;;;3.23;;
16514;SDS011;8370;52.556;7.970;2023-04-25T02:09:21;15.33;;;3.87;;
16514;SDS011;8370;52.556;7.970;2023-04-25T02:11:47;34.27;;;4.20;;
16514;SDS011;8370;52.556;7.970;2023-04-25T02:14:12;17.73;;;4.03;;
16514;SDS011;8370;52.556;7.970;2023-04-25T02:16:38;15.37;;;4.10;;
16514;SDS011;8370;52.556;7.970;2023-04-25T02:19:04;12.07;;;3.30;;
16514;SDS011;8370;52.556;7.970;2023-04-25T02:21:30;14.90;;;3.27;;
16514;SDS011;8370;52.556;7.970;2023-04-25T02:23:56;7.77;;;3.63;;
16514;SDS011;8370;52.556;7.970;2023-04-25T02:26:22;13.33;;;3.70;;
16514;SDS011;8370;52.556;7.970;2023-04-25T02:28:48;8.40;;;3.33;;
16514;SDS011;8370;52.556;7.970;2023-04-25T02:31:14;15.63;;;4.27;;
16514;SDS011;8370;52.556;7.970;2023-04-25T02:33:40;12.23;;;3.20;;
16514;SDS011;8370;52.556;7.970;2023-04-25T02:36:06;15.70;;;3.33;;
16514;SDS011;8370;52.556;7.970;2023-04-25T02:38:31;16.07;;;3.97;;
16514;SDS011;8370;52.556;7.970;2023-04-25T02:40:57;13.70;;;3.70;;
16514;SDS011;8370;52.556;7.970;2023-04-25T02:43:22;13.33;;;3.53;;
16514;SDS011;8370;52.556;7.970;2023-04-25T02:45:48;19.33;;;3.27;;
16514;SDS011;8370;52.556;7.970;2023-04-25T02:48:13;15.67;;;4.43;;
16514;SDS011;8370;52.556;7.970;2023-04-25T02:50:39;17.27;;;3.13;;
16514;SDS011;8370;52.556;7.970;2023-04-25T02:53:04;14.40;;;3.30;;
16514;SDS011;8370;52.556;7.970;2023-04-25T02:55:30;16.97;;;3.90;;
16514;SDS011;8370;52.556;7.970;2023-04-25T02:57:55;10.40;;;2.83;;
16514;SDS011;8370;52.556;7.970;2023-04-25T03:00:21;9.93;;;3.00;;
16514;SDS011;8370;52.556;7.970;2023-04-25T03:02:47;10.03;;;3.30;;
16514;SDS011;8370;52.556;7.970;2023-04-25T03:05:13;13.67;;;3.47;;
16514;SDS011;8370;52.556;7.970;2023-04-25T03:07:38;8.00;;;3.20;;
16514;SDS011;8370;52.556;7.970;2023-04-25T03:10:05;12.07;;;3.23;;
16514;SDS011;8370;52.556;7.970;2023-04-25T03:12:31;10.87;;;3.40;;
16514;SDS011;8370;52.556;7.970;2023-04-25T03:14:57;15.43;;;4.00;;
16514;SDS011;8370;52.556;7.970;2023-04-25T03:17:22;11.03;;;3.33;;
16514;SDS011;8370;52.556;7.970;2023-04-25T03:19:48;16.53;;;3.30;;
16514;SDS011;8370;52.556;7.970;2023-04-25T03:22:13;15.17;;;3.17;;
16514;SDS011;8370;52.556;7.970;2023-04-25T03:24:39;7.87;;;2.73;;
16514;SDS011;8370;52.556;7.970;2023-04-25T03:27:05;15.30;;;3.57;;
16514;SDS011;8370;52.556;7.970;2023-04-25T03:29:30;10.20;;;3.10;;
16514;SDS011;8370;52.556;7.970;2023-04-25T03:31:56;15.47;;;4.33;;
16514;SDS011;8370;52.556;7.970;2023-04-25T03:34:21;15.23;;;3.67;;
16514;SDS011;8370;52.556;7.970;2023-04-25T03:36:47;9.77;;;3.10;;
16514;SDS011;8370;52.556;7.970;2023-04-25T03:39:12;11.63;;;3.47;;
16514;SDS011;8370;52.556;7.970;2023-04-25T03:41:38;10.37;;;3.13;;
16514;SDS011;8370;52.556;7.970;2023-04-25T03:44:03;10.60;;;3.13;;
16514;SDS011;8370;52.556;7.970;2023-04-25T03:46:29;12.83;;;2.83;;
16514;SDS011;8370;52.556;7.970;2023-04-25T03:48:54;11.90;;;3.50;;
16514;SDS011;8370;52.556;7.970;2023-04-25T03:51:20;16.63;;;3.37;;
16514;SDS011;8370;52.556;7.970;2023-04-25T03:53:45;12.10;;;2.77;;
16514;SDS011;8370;52.556;7.970;2023-04-25T03:56:11;14.07;;;3.30;;
16514;SDS011;8370;52.556;7.970;2023-04-25T03:58:36;13.67;;;3.53;;
16514;SDS011;8370;52.556;7.970;2023-04-25T04:01:02;7.43;;;3.13;;
16514;SDS011;8370;52.556;7.970;2023-04-25T04:03:32;14.23;;;3.00;;
16514;SDS011;8370;52.556;7.970;2023-04-25T04:05:59;13.50;;;3.60;;
16514;SDS011;8370;52.556;7.970;2023-04-25T04:08:24;11.43;;;3.07;;
16514;SDS011;8370;52.556;7.970;2023-04-25T04:10:50;13.20;;;3.00;;
16514;SDS011;8370;52.556;7.970;2023-04-25T04:13:15;14.83;;;3.47;;
16514;SDS011;8370;52.556;7.970;2023-04-25T04:15:41;12.67;;;2.53;;
16514;SDS011;8370;52.556;7.970;2023-04-25T04:18:06;12.73;;;3.67;;
16514;SDS011;8370;52.556;7.970;2023-04-25T04:20:32;12.40;;;2.47;;
16514;SDS011;8370;52.556;7.970;2023-04-25T04:22:57;18.00;;;3.00;;
16514;SDS011;8370;52.556;7.970;2023-04-25T04:25:23;14.70;;;2.93;;
16514;SDS011;8370;52.556;7.970;2023-04-25T04:27:49;11.33;;;2.80;;
16514;SDS011;8370;52.556;7.970;2023-04-25T04:30:19;9.27;;;2.67;;
16514;SDS011;8370;52.556;7.970;2023-04-25T04:32:46;15.03;;;2.73;;
16514;SDS011;8370;52.556;7.970;2023-04-25T04:35:13;9.73;;;2.87;;
16514;SDS011;8370;52.556;7.970;2023-04-25T04:37:39;14.93;;;3.33;;
16514;SDS011;8370;52.556;7.970;2023-04-25T04:40:05;10.90;;;3.03;;
16514;SDS011;8370;52.556;7.970;2023-04-25T04:42:31;18.60;;;3.33;;
16514;SDS011;8370;52.556;7.970;2023-04-25T04:44:57;12.00;;;2.37;;
16514;SDS011;8370;52.556;7.970;2023-04-25T04:47:23;11.17;;;3.07;;
16514;SDS011;8370;52.556;7.970;2023-04-25T04:49:50;7.93;;;2.67;;
16514;SDS011;8370;52.556;7.970;2023-04-25T04:52:16;14.17;;;3.30;;
16514;SDS011;8370;52.556;7.970;2023-04-25T04:54:41;18.23;;;3.47;;
16514;SDS011;8370;52.556;7.970;2023-04-25T04:57:07;11.70;;;2.70;;
16514;SDS011;8370;52.556;7.970;2023-04-25T04:59:32;14.90;;;3.30;;
16514;SDS011;8370;52.556;7.970;2023-04-25T05:01:58;10.50;;;3.00;;
16514;SDS011;8370;52.556;7.970;2023-04-25T05:04:23;11.13;;;3.23;;
16514;SDS011;8370;52.556;7.970;2023-04-25T05:06:49;13.97;;;2.63;;
16514;SDS011;8370;52.556;7.970;2023-04-25T05:09:14;11.37;;;3.00;;
16514;SDS011;8370;52.556;7.970;2023-04-25T05:11:40;14.20;;;3.20;;
16514;SDS011;8370;52.556;7.970;2023-04-25T05:14:05;14.87;;;3.03;;
16514;SDS011;8370;52.556;7.970;2023-04-25T05:16:31;10.33;;;2.97;;
16514;SDS011;8370;52.556;7.970;2023-04-25T05:18:56;11.27;;;2.97;;
16514;SDS011;8370;52.556;7.970;2023-04-25T05:21:22;12.50;;;2.77;;
16514;SDS011;8370;52.556;7.970;2023-04-25T05:23:47;8.83;;;2.77;;
16514;SDS011;8370;52.556;7.970;2023-04-25T05:26:13;17.60;;;3.00;;
16514;SDS011;8370;52.556;7.970;2023-04-25T05:28:39;11.07;;;2.60;;
16514;SDS011;8370;52.556;7.970;2023-04-25T05:31:06;7.70;;;2.90;;
16514;SDS011;8370;52.556;7.970;2023-04-25T05:33:31;11.43;;;3.90;;
16514;SDS011;8370;52.556;7.970;2023-04-25T05:35:57;11.30;;;3.17;;
16514;SDS011;8370;52.556;7.970;2023-04-25T05:38:23;13.83;;;2.97;;
16514;SDS011;8370;52.556;7.970;2023-04-25T05:40:48;9.77;;;3.30;;
16514;SDS011;8370;52.556;7.970;2023-04-25T05:43:14;18.00;;;3.60;;
16514;SDS011;8370;52.556;7.970;2023-04-25T05:45:39;7.77;;;2.63;;
16514;SDS011;8370;52.556;7.970;2023-04-25T05:48:04;10.27;;;2.37;;
16514;SDS011;8370;52.556;7.970;2023-04-25T05:50:30;12.30;;;2.97;;
16514;SDS011;8370;52.556;7.970;2023-04-25T05:52:56;11.30;;;2.53;;
16514;SDS011;8370;52.556;7.970;2023-04-25T05:55:21;10.47;;;3.53;;
16514;SDS011;8370;52.556;7.970;2023-04-25T05:57:47;11.97;;;3.53;;
16514;SDS011;8370;52.556;7.970;2023-04-25T06:00:13;19.03;;;3.47;;
16514;SDS011;8370;52.556;7.970;2023-04-25T06:02:40;13.43;;;3.40;;
16514;SDS011;8370;52.556;7.970;2023-04-25T06:05:06;12.83;;;2.80;;
16514;SDS011;8370;52.556;7.970;2023-04-25T06:07:32;14.43;;;3.20;;
16514;SDS011;8370;52.556;7.970;2023-04-25T06:09:58;15.97;;;2.33;;
16514;SDS011;8370;52.556;7.970;2023-04-25T06:12:25;10.73;;;3.03;;
16514;SDS011;8370;52.556;7.970;2023-04-25T06:14:51;10.50;;;2.47;;
16514;SDS011;8370;52.556;7.970;2023-04-25T06:17:16;13.37;;;2.87;;
16514;SDS011;8370;52.556;7.970;2023-04-25T06:19:42;13.43;;;2.60;;
16514;SDS011;8370;52.556;7.970;2023-04-25T06:22:07;7.33;;;2.13;;
16514;SDS011;8370;52.556;7.970;2023-04-25T06:24:33;9.33;;;1.87;;
16514;SDS011;8370;52.556;7.970;2023-04-25T06:26:58;8.10;;;2.30;;
16514;SDS011;8370;52.556;7.970;2023-04-25T06:29:25;8.57;;;2.60;;
16514;SDS011;8370;52.556;7.970;2023-04-25T06:31:50;5.17;;;1.63;;
16514;SDS011;8370;52.556;7.970;2023-04-25T06:34:16;13.87;;;2.43;;
16514;SDS011;8370;52.556;7.970;2023-04-25T06:36:42;6.00;;;1.97;;
16514;SDS011;8370;52.556;7.970;2023-04-25T06:39:09;12.33;;;1.87;;
16514;SDS011;8370;52.556;7.970;2023-04-25T06:41:34;11.33;;;2.10;;
16514;SDS011;8370;52.556;7.970;2023-04-25T06:44:00;14.27;;;2.57;;
16514;SDS011;8370;52.556;7.970;2023-04-25T06:46:26;10.10;;;2.10;;
16514;SDS011;8370;52.556;7.970;2023-04-25T06:48:51;13.37;;;2.13;;
16514;SDS011;8370;52.556;7.970;2023-04-25T06:51:17;10.77;;;2.33;;
16514;SDS011;8370;52.556;7.970;2023-04-25T06:53:42;13.87;;;2.60;;
16514;SDS011;8370;52.556;7.970;2023-04-25T06:56:08;9.13;;;2.40;;
16514;SDS011;8370;52.556;7.970;2023-04-25T06:58:34;5.93;;;1.73;;
16514;SDS011;8370;52.556;7.970;2023-04-25T07:01:00;12.17;;;2.43;;
16514;SDS011;8370;52.556;7.970;2023-04-25T07:03:26;8.43;;;1.80;;
16514;SDS011;8370;52.556;7.970;2023-04-25T07:05:51;6.53;;;1.80;;
16514;SDS011;8370;52.556;7.970;2023-04-25T07:08:17;6.43;;;2.10;;
16514;SDS011;8370;52.556;7.970;2023-04-25T07:10:42;12.13;;;2.03;;
16514;SDS011;8370;52.556;7.970;2023-04-25T07:13:08;6.23;;;1.97;;
16514;SDS011;8370;52.556;7.970;2023-04-25T07:15:33;6.00;;;2.07;;
16514;SDS011;8370;52.556;7.970;2023-04-25T07:17:59;10.53;;;1.90;;
16514;SDS011;8370;52.556;7.970;2023-04-25T07:20:25;8.83;;;1.60;;
16514;SDS011;8370;52.556;7.970;2023-04-25T07:22:52;6.90;;;2.00;;
16514;SDS011;8370;52.556;7.970;2023-04-25T07:25:18;14.33;;;1.97;;
16514;SDS011;8370;52.556;7.970;2023-04-25T07:27:43;6.03;;;1.30;;
16514;SDS011;8370;52.556;7.970;2023-04-25T07:30:09;15.37;;;2.40;;
16514;SDS011;8370;52.556;7.970;2023-04-25T07:32:35;14.17;;;2.03;;
16514;SDS011;8370;52.556;7.970;2023-04-25T07:35:00;9.17;;;1.77;;
16514;SDS011;8370;52.556;7.970;2023-04-25T07:37:26;7.20;;;1.67;;
16514;SDS011;8370;52.556;7.970;2023-04-25T07:39:52;6.63;;;1.43;;
16514;SDS011;8370;52.556;7.970;2023-04-25T07:42:17;7.77;;;1.43;;
16514;SDS011;8370;52.556;7.970;2023-04-25T07:44:43;6.30;;;1.43;;
16514;SDS011;8370;52.556;7.970;2023-04-25T07:47:09;7.93;;;1.77;;
16514;SDS011;8370;52.556;7.970;2023-04-25T07:49:35;6.63;;;1.47;;
16514;SDS011;8370;52.556;7.970;2023-04-25T07:52:01;5.20;;;1.40;;
16514;SDS011;8370;52.556;7.970;2023-04-25T07:54:28;5.43;;;1.37;;
16514;SDS011;8370;52.556;7.970;2023-04-25T07:56:53;5.07;;;1.10;;
16514;SDS011;8370;52.556;7.970;2023-04-25T07:59:19;8.50;;;1.10;;
16514;SDS011;8370;52.556;7.970;2023-04-25T08:01:45;4.53;;;1.07;;
16514;SDS011;8370;52.556;7.970;2023-04-25T08:04:10;4.33;;;0.90;;
16514;SDS011;8370;52.556;7.970;2023-04-25T08:06:36;3.33;;;1.00;;
16514;SDS011;8370;52.556;7.970;2023-04-25T08:09:02;7.70;;;1.33;;
16514;SDS011;8370;52.556;7.970;2023-04-25T08:11:28;7.53;;;1.23;;
16514;SDS011;8370;52.556;7.970;2023-04-25T08:13:53;4.13;;;1.30;;
16514;SDS011;8370;52.556;7.970;2023-04-25T08:16:19;7.60;;;1.57;;
16514;SDS011;8370;52.556;7.970;2023-04-25T08:18:45;11.27;;;1.93;;
16514;SDS011;8370;52.556;7.970;2023-04-25T08:21:10;7.43;;;2.13;;
16514;SDS011;8370;52.556;7.970;2023-04-25T08:23:36;6.37;;;1.50;;
16514;SDS011;8370;52.556;7.970;2023-04-25T08:26:02;6.13;;;1.03;;
16514;SDS011;8370;52.556;7.970;2023-04-25T08:28:28;10.63;;;1.80;;
16514;SDS011;8370;52.556;7.970;2023-04-25T08:30:53;9.30;;;1.30;;
16514;SDS011;8370;52.556;7.970;2023-04-25T08:33:19;8.57;;;1.30;;
16514;SDS011;8370;52.556;7.970;2023-04-25T08:35:44;8.03;;;1.67;;
16514;SDS011;8370;52.556;7.970;2023-04-25T08:38:10;5.67;;;1.20;;
16514;SDS011;8370;52.556;7.970;2023-04-25T08:40:37;2.27;;;1.10;;
16514;SDS011;8370;52.556;7.970;2023-04-25T08:43:04;6.63;;;1.37;;
16514;SDS011;8370;52.556;7.970;2023-04-25T08:45:36;1.90;;;1.23;;
16514;SDS011;8370;52.556;7.970;2023-04-25T08:48:05;3.07;;;0.80;;
16514;SDS011;8370;52.556;7.970;2023-04-25T08:50:35;3.20;;;0.97;;
16514;SDS011;8370;52.556;7.970;2023-04-25T08:53:01;3.33;;;0.90;;
16514;SDS011;8370;52.556;7.970;2023-04-25T08:55:29;8.03;;;1.50;;
16514;SDS011;8370;52.556;7.970;2023-04-25T08:57:56;3.20;;;1.10;;
16514;SDS011;8370;52.556;7.970;2023-04-25T09:00:22;6.90;;;1.10;;
16514;SDS011;8370;52.556;7.970;2023-04-25T09:02:48;3.00;;;1.23;;
16514;SDS011;8370;52.556;7.970;2023-04-25T09:05:14;3.53;;;1.33;;
16514;SDS011;8370;52.556;7.970;2023-04-25T09:07:39;1.83;;;0.90;;
16514;SDS011;8370;52.556;7.970;2023-04-25T09:10:05;2.97;;;0.70;;
16514;SDS011;8370;52.556;7.970;2023-04-25T09:12:31;3.10;;;0.60;;
16514;SDS011;8370;52.556;7.970;2023-04-25T09:15:03;5.03;;;1.20;;
16514;SDS011;8370;52.556;7.970;2023-04-25T09:17:32;6.97;;;1.20;;
16514;SDS011;8370;52.556;7.970;2023-04-25T09:20:08;10.13;;;1.47;;
16514;SDS011;8370;52.556;7.970;2023-04-25T09:22:36;4.93;;;1.10;;
16514;SDS011;8370;52.556;7.970;2023-04-25T09:25:03;5.53;;;1.50;;
16514;SDS011;8370;52.556;7.970;2023-04-25T09:27:33;4.57;;;1.00;;
16514;SDS011;8370;52.556;7.970;2023-04-25T09:29:58;4.33;;;1.03;;
16514;SDS011;8370;52.556;7.970;2023-04-25T09:32:27;8.83;;;1.13;;
16514;SDS011;8370;52.556;7.970;2023-04-25T09:34:54;4.10;;;1.23;;
16514;SDS011;8370;52.556;7.970;2023-04-25T09:37:21;5.30;;;1.07;;
16514;SDS011;8370;52.556;7.970;2023-04-25T09:39:52;5.00;;;1.17;;
16514;SDS011;8370;52.556;7.970;2023-04-25T09:42:25;5.97;;;1.40;;
16514;SDS011;8370;52.556;7.970;2023-04-25T09:44:53;3.33;;;0.80;;
16514;SDS011;8370;52.556;7.970;2023-04-25T09:47:19;5.87;;;0.70;;
16514;SDS011;8370;52.556;7.970;2023-04-25T09:49:47;5.33;;;0.80;;
16514;SDS011;8370;52.556;7.970;2023-04-25T09:52:15;1.50;;;0.90;;
16514;SDS011;8370;52.556;7.970;2023-04-25T09:54:42;1.93;;;0.80;;
16514;SDS011;8370;52.556;7.970;2023-04-25T09:59:47;2.77;;;0.60;;
16514;SDS011;8370;52.556;7.970;2023-04-25T10:02:18;1.50;;;0.40;;
16514;SDS011;8370;52.556;7.970;2023-04-25T10:04:47;0.40;;;0.40;;
16514;SDS011;8370;52.556;7.970;2023-04-25T10:07:13;1.00;;;0.60;;
16514;SDS011;8370;52.556;7.970;2023-04-25T10:09:39;1.43;;;0.60;;
16514;SDS011;8370;52.556;7.970;2023-04-25T10:12:06;1.90;;;0.90;;
16514;SDS011;8370;52.556;7.970;2023-04-25T10:14:32;4.70;;;0.70;;
16514;SDS011;8370;52.556;7.970;2023-04-25T10:16:59;5.73;;;1.27;;
16514;SDS011;8370;52.556;7.970;2023-04-25T10:19:25;2.10;;;1.00;;
16514;SDS011;8370;52.556;7.970;2023-04-25T10:21:52;4.00;;;0.70;;
16514;SDS011;8370;52.556;7.970;2023-04-25T10:24:28;3.27;;;0.70;;
16514;SDS011;8370;52.556;7.970;2023-04-25T10:26:54;3.50;;;0.63;;
16514;SDS011;8370;52.556;7.970;2023-04-25T10:29:25;4.70;;;1.33;;
16514;SDS011;8370;52.556;7.970;2023-04-25T10:31:51;4.13;;;1.13;;
16514;SDS011;8370;52.556;7.970;2023-04-25T10:34:17;3.80;;;0.90;;
16514;SDS011;8370;52.556;7.970;2023-04-25T10:36:47;4.80;;;0.90;;
16514;SDS011;8370;52.556;7.970;2023-04-25T10:39:20;6.90;;;1.47;;
16514;SDS011;8370;52.556;7.970;2023-04-25T10:41:52;5.60;;;0.97;;
16514;SDS011;8370;52.556;7.970;2023-04-25T10:44:18;3.20;;;1.00;;
16514;SDS011;8370;52.556;7.970;2023-04-25T10:46:44;4.57;;;1.20;;
16514;SDS011;8370;52.556;7.970;2023-04-25T10:49:10;4.20;;;1.10;;
16514;SDS011;8370;52.556;7.970;2023-04-25T10:51:58;8.93;;;1.20;;
16514;SDS011;8370;52.556;7.970;2023-04-25T10:54:40;8.57;;;1.30;;
16514;SDS011;8370;52.556;7.970;2023-04-25T10:57:07;3.63;;;1.20;;
16514;SDS011;8370;52.556;7.970;2023-04-25T10:59:32;3.97;;;0.97;;
16514;SDS011;8370;52.556;7.970;2023-04-25T11:01:58;3.43;;;0.90;;
16514;SDS011;8370;52.556;7.970;2023-04-25T11:04:24;5.13;;;1.03;;
16514;SDS011;8370;52.556;7.970;2023-04-25T11:09:35;1.87;;;0.80;;
16514;SDS011;8370;52.556;7.970;2023-04-25T11:12:03;5.37;;;1.60;;
16514;SDS011;8370;52.556;7.970;2023-04-25T11:14:29;5.80;;;0.90;;
16514;SDS011;8370;52.556;7.970;2023-04-25T11:16:55;4.73;;;0.73;;
16514;SDS011;8370;52.556;7.970;2023-04-25T11:19:22;3.57;;;1.07;;
16514;SDS011;8370;52.556;7.970;2023-04-25T11:21:48;2.30;;;0.77;;
16514;SDS011;8370;52.556;7.970;2023-04-25T11:24:15;3.60;;;0.90;;
16514;SDS011;8370;52.556;7.970;2023-04-25T11:26:42;3.77;;;0.87;;
16514;SDS011;8370;52.556;7.970;2023-04-25T11:29:08;4.27;;;0.77;;
16514;SDS011;8370;52.556;7.970;2023-04-25T11:31:34;2.50;;;0.90;;
16514;SDS011;8370;52.556;7.970;2023-04-25T11:34:00;5.53;;;0.93;;
16514;SDS011;8370;52.556;7.970;2023-04-25T11:36:25;3.90;;;0.80;;
16514;SDS011;8370;52.556;7.970;2023-04-25T11:38:51;3.53;;;0.80;;
16514;SDS011;8370;52.556;7.970;2023-04-25T11:41:18;1.23;;;0.70;;
16514;SDS011;8370;52.556;7.970;2023-04-25T11:43:44;2.73;;;1.00;;
16514;SDS011;8370;52.556;7.970;2023-04-25T11:46:09;8.07;;;0.90;;
16514;SDS011;8370;52.556;7.970;2023-04-25T11:48:36;2.13;;;0.70;;
16514;SDS011;8370;52.556;7.970;2023-04-25T11:51:06;3.77;;;0.80;;
16514;SDS011;8370;52.556;7.970;2023-04-25T11:53:31;2.17;;;0.70;;
16514;SDS011;8370;52.556;7.970;2023-04-25T11:55:57;2.80;;;1.03;;
16514;SDS011;8370;52.556;7.970;2023-04-25T11:58:23;3.93;;;1.20;;
16514;SDS011;8370;52.556;7.970;2023-04-25T12:00:50;2.70;;;0.83;;
16514;SDS011;8370;52.556;7.970;2023-04-25T12:03:15;2.83;;;1.27;;
16514;SDS011;8370;52.556;7.970;2023-04-25T12:05:42;1.77;;;0.77;;
16514;SDS011;8370;52.556;7.970;2023-04-25T12:08:10;3.17;;;1.10;;
16514;SDS011;8370;52.556;7.970;2023-04-25T12:10:39;2.97;;;1.20;;
16514;SDS011;8370;52.556;7.970;2023-04-25T12:13:21;2.97;;;1.00;;
16514;SDS011;8370;52.556;7.970;2023-04-25T12:15:48;1.47;;;0.60;;
16514;SDS011;8370;52.556;7.970;2023-04-25T12:18:14;4.17;;;1.03;;
16514;SDS011;8370;52.556;7.970;2023-04-25T12:20:41;0.93;;;0.30;;
16514;SDS011;8370;52.556;7.970;2023-04-25T12:23:07;3.37;;;0.50;;
16514;SDS011;8370;52.556;7.970;2023-04-25T12:25:39;3.70;;;0.60;;
16514;SDS011;8370;52.556;7.970;2023-04-25T12:28:13;2.30;;;0.60;;
16514;SDS011;8370;52.556;7.970;2023-04-25T12:33:26;3.07;;;0.60;;
16514;SDS011;8370;52.556;7.970;2023-04-25T12:35:56;1.70;;;0.70;;
16514;SDS011;8370;52.556;7.970;2023-04-25T12:38:23;3.00;;;0.87;;
16514;SDS011;8370;52.556;7.970;2023-04-25T12:40:53;1.70;;;0.70;;
16514;SDS011;8370;52.556;7.970;2023-04-25T12:43:18;4.00;;;0.70;;
16514;SDS011;8370;52.556;7.970;2023-04-25T12:45:45;2.00;;;0.83;;
16514;SDS011;8370;52.556;7.970;2023-04-25T12:48:13;3.23;;;0.63;;
16514;SDS011;8370;52.556;7.970;2023-04-25T12:50:39;2.67;;;1.07;;
16514;SDS011;8370;52.556;7.970;2023-04-25T12:53:04;5.60;;;1.40;;
16514;SDS011;8370;52.556;7.970;2023-04-25T12:55:30;1.73;;;0.70;;
16514;SDS011;8370;52.556;7.970;2023-04-25T12:57:55;4.90;;;0.87;;
16514;SDS011;8370;52.556;7.970;2023-04-25T13:00:21;3.47;;;1.20;;
16514;SDS011;8370;52.556;7.970;2023-04-25T13:02:46;3.57;;;1.10;;
16514;SDS011;8370;52.556;7.970;2023-04-25T13:05:12;2.23;;;1.17;;
16514;SDS011;8370;52.556;7.970;2023-04-25T13:07:38;3.17;;;0.80;;
16514;SDS011;8370;52.556;7.970;2023-04-25T13:10:03;6.27;;;0.90;;
16514;SDS011;8370;52.556;7.970;2023-04-25T13:12:30;1.47;;;0.90;;
16514;SDS011;8370;52.556;7.970;2023-04-25T13:14:56;2.70;;;0.90;;
16514;SDS011;8370;52.556;7.970;2023-04-25T13:17:22;7.03;;;1.20;;
16514;SDS011;8370;52.556;7.970;2023-04-25T13:19:47;4.37;;;1.00;;
16514;SDS011;8370;52.556;7.970;2023-04-25T13:22:13;3.23;;;0.80;;
16514;SDS011;8370;52.556;7.970;2023-04-25T13:24:40;2.00;;;0.90;;
16514;SDS011;8370;52.556;7.970;2023-04-25T13:27:05;2.47;;;1.00;;
16514;SDS011;8370;52.556;7.970;2023-04-25T13:29:31;5.63;;;1.33;;
16514;SDS011;8370;52.556;7.970;2023-04-25T13:31:59;5.80;;;0.87;;
16514;SDS011;8370;52.556;7.970;2023-04-25T13:34:24;2.40;;;0.90;;
16514;SDS011;8370;52.556;7.970;2023-04-25T13:36:50;6.77;;;0.90;;
16514;SDS011;8370;52.556;7.970;2023-04-25T13:39:15;5.37;;;1.30;;
16514;SDS011;8370;52.556;7.970;2023-04-25T13:41:41;6.47;;;1.03;;
16514;SDS011;8370;52.556;7.970;2023-04-25T13:44:06;2.90;;;0.70;;
16514;SDS011;8370;52.556;7.970;2023-04-25T13:46:31;1.93;;;0.87;;
16514;SDS011;8370;52.556;7.970;2023-04-25T13:48:57;2.67;;;1.20;;
16514;SDS011;8370;52.556;7.970;2023-04-25T13:51:22;3.97;;;1.30;;
16514;SDS011;8370;52.556;7.970;2023-04-25T13:53:48;5.20;;;1.00;;
16514;SDS011;8370;52.556;7.970;2023-04-25T13:56:13;2.10;;;0.67;;
16514;SDS011;8370;52.556;7.970;2023-04-25T13:58:39;4.23;;;0.80;;
16514;SDS011;8370;52.556;7.970;2023-04-25T14:01:05;4.63;;;0.83;;
16514;SDS011;8370;52.556;7.970;2023-04-25T14:03:30;3.27;;;0.90;;
16514;SDS011;8370;52.556;7.970;2023-04-25T14:05:56;3.97;;;1.40;;
16514;SDS011;8370;52.556;7.970;2023-04-25T14:08:21;3.33;;;0.97;;
16514;SDS011;8370;52.556;7.970;2023-04-25T14:10:47;3.50;;;0.97;;
16514;SDS011;8370;52.556;7.970;2023-04-25T14:13:12;2.97;;;1.00;;
16514;SDS011;8370;52.556;7.970;2023-04-25T14:15:38;2.00;;;0.80;;
16514;SDS011;8370;52.556;7.970;2023-04-25T14:18:03;2.73;;;0.70;;
16514;SDS011;8370;52.556;7.970;2023-04-25T14:20:29;3.00;;;0.70;;
16514;SDS011;8370;52.556;7.970;2023-04-25T14:22:55;7.43;;;1.00;;
16514;SDS011;8370;52.556;7.970;2023-04-25T14:25:22;3.10;;;0.93;;
16514;SDS011;8370;52.556;7.970;2023-04-25T14:27:48;1.87;;;1.00;;
16514;SDS011;8370;52.556;7.970;2023-04-25T14:30:15;3.47;;;1.07;;
16514;SDS011;8370;52.556;7.970;2023-04-25T14:32:41;6.27;;;1.20;;
16514;SDS011;8370;52.556;7.970;2023-04-25T14:35:07;5.10;;;1.47;;
16514;SDS011;8370;52.556;7.970;2023-04-25T14:37:34;5.00;;;0.97;;
16514;SDS011;8370;52.556;7.970;2023-04-25T14:39:59;2.97;;;1.10;;
16514;SDS011;8370;52.556;7.970;2023-04-25T14:42:25;2.77;;;1.30;;
16514;SDS011;8370;52.556;7.970;2023-04-25T14:44:50;7.30;;;1.30;;
16514;SDS011;8370;52.556;7.970;2023-04-25T14:47:16;2.40;;;0.87;;
16514;SDS011;8370;52.556;7.970;2023-04-25T14:49:41;4.90;;;1.03;;
16514;SDS011;8370;52.556;7.970;2023-04-25T14:52:07;6.40;;;1.07;;
16514;SDS011;8370;52.556;7.970;2023-04-25T14:54:32;4.43;;;1.20;;
16514;SDS011;8370;52.556;7.970;2023-04-25T14:56:58;2.87;;;1.03;;
16514;SDS011;8370;52.556;7.970;2023-04-25T14:59:23;3.97;;;1.23;;